createdAt,value
2018-12-14T00:02:14.725Z,98077.02
2018-12-14T00:04:43.696Z,98077.30
2018-12-14T00:07:12.520Z,98072.64
2018-12-14T00:09:41.236Z,98081.36
2018-12-14T00:12:09.980Z,98078.04
2018-12-14T00:14:38.784Z,98078.13
2018-12-14T00:17:07.627Z,98080.80
2018-12-14T00:19:36.431Z,98080.77
2018-12-14T00:22:08.456Z,98089.11
2018-12-14T00:24:37.182Z,98072.72
2018-12-14T00:27:06.025Z,98083.28
2018-12-14T00:29:34.748Z,98084.68
2018-12-14T00:32:03.569Z,98080.45
2018-12-14T00:34:32.275Z,98080.31
2018-12-14T00:37:01.623Z,98083.45
2018-12-14T00:39:30.308Z,98087.34
2018-12-14T00:41:59.014Z,98087.73
2018-12-14T00:44:27.725Z,98089.02
2018-12-14T00:46:56.598Z,98086.32
2018-12-14T00:49:25.384Z,98095.25
2018-12-14T00:51:54.159Z,98096.75
2018-12-14T00:54:22.905Z,98097.00
2018-12-14T00:56:51.638Z,98099.64
2018-12-14T00:59:20.360Z,98101.97
2018-12-14T01:01:49.079Z,98110.54
2018-12-14T01:04:17.816Z,98108.82
2018-12-14T01:06:46.593Z,98111.55
2018-12-14T01:09:15.420Z,98113.86
2018-12-14T01:11:44.112Z,98111.48
2018-12-14T01:14:13.168Z,98113.41
2018-12-14T01:16:41.981Z,98111.42
2018-12-14T01:19:10.886Z,98117.64
2018-12-14T01:21:39.651Z,98107.84
2018-12-14T01:24:08.408Z,98112.18
2018-12-14T01:26:37.103Z,98112.88
2018-12-14T01:29:05.819Z,98116.48
2018-12-14T01:31:34.635Z,98112.25
2018-12-14T01:34:03.623Z,98118.41
2018-12-14T01:36:32.380Z,98117.78
2018-12-14T01:39:01.243Z,98113.79
2018-12-14T01:41:29.949Z,98116.05
2018-12-14T01:43:58.655Z,98114.48
2018-12-14T01:46:27.344Z,98112.75
2018-12-14T01:48:56.083Z,98114.80
2018-12-14T01:51:24.791Z,98113.76
2018-12-14T01:53:53.511Z,98112.22
2018-12-14T01:56:22.329Z,98107.84
2018-12-14T01:58:51.173Z,98107.43
2018-12-14T02:01:19.949Z,98099.03
2018-12-14T02:03:48.757Z,98095.04
2018-12-14T02:06:17.528Z,98095.42
2018-12-14T02:08:46.371Z,98098.36
2018-12-14T02:11:15.051Z,98088.39
2018-12-14T02:13:43.808Z,98096.33
2018-12-14T02:16:12.496Z,98095.80
2018-12-14T02:18:41.221Z,98098.37
2018-12-14T02:21:10.043Z,98095.70
2018-12-14T02:23:39.104Z,98098.88
2018-12-14T02:26:07.800Z,98094.21
2018-12-14T02:28:36.893Z,98092.67
2018-12-14T02:31:05.623Z,98093.69
2018-12-14T02:33:34.423Z,98090.53
2018-12-14T02:36:03.152Z,98096.50
2018-12-14T02:38:31.930Z,98099.67
2018-12-14T02:41:03.742Z,98103.91
2018-12-14T02:43:32.592Z,98098.28
2018-12-14T02:46:01.323Z,98090.77
2018-12-14T02:48:30.020Z,98091.57
2018-12-14T02:50:58.786Z,98094.88
2018-12-14T02:53:27.457Z,98092.73
2018-12-14T02:55:56.168Z,98096.34
2018-12-14T02:58:24.974Z,98095.28
2018-12-14T03:00:53.802Z,98093.17
2018-12-14T03:03:22.722Z,98088.91
2018-12-14T03:05:51.535Z,98093.99
2018-12-14T03:08:20.226Z,98091.28
2018-12-14T03:10:48.940Z,98086.21
2018-12-14T03:13:17.752Z,98089.79
2018-12-14T03:15:46.483Z,98096.66
2018-12-14T03:18:15.209Z,98090.58
2018-12-14T03:20:43.914Z,98092.58
2018-12-14T03:23:12.607Z,98092.38
2018-12-14T03:25:41.615Z,98083.28
2018-12-14T03:28:10.628Z,98086.12
2018-12-14T03:30:39.353Z,98089.72
2018-12-14T03:33:08.237Z,98091.34
2018-12-14T03:35:36.941Z,98095.54
2018-12-14T03:38:05.620Z,98092.84
2018-12-14T03:40:34.355Z,98090.95
2018-12-14T03:43:03.052Z,98088.87
2018-12-14T03:45:32.575Z,98094.62
2018-12-14T03:48:01.248Z,98104.93
2018-12-14T03:50:30.599Z,98104.15
2018-12-14T03:52:59.345Z,98104.77
2018-12-14T03:55:28.052Z,98112.36
2018-12-14T03:57:57.243Z,98107.99
2018-12-14T04:00:26.486Z,98110.77
2018-12-14T04:02:55.551Z,98114.22
2018-12-14T04:05:24.718Z,98117.83
2018-12-14T04:07:53.393Z,98116.84
2018-12-14T04:10:22.097Z,98121.07
2018-12-14T04:12:50.884Z,98120.95
2018-12-14T04:15:19.584Z,98121.11
2018-12-14T04:17:48.247Z,98128.63
2018-12-14T04:20:16.996Z,98123.81
2018-12-14T04:22:45.674Z,98125.95
2018-12-14T04:25:14.508Z,98128.44
2018-12-14T04:27:43.198Z,98125.09
2018-12-14T04:30:12.134Z,98126.51
2018-12-14T04:32:40.899Z,98127.08
2018-12-14T04:35:09.663Z,98128.83
2018-12-14T04:37:38.475Z,98128.92
2018-12-14T04:40:08.063Z,98132.91
2018-12-14T04:42:37.186Z,98134.63
2018-12-14T04:45:06.827Z,98132.62
2018-12-14T04:47:35.572Z,98136.16
2018-12-14T04:50:04.509Z,98139.98
2018-12-14T04:52:33.248Z,98140.14
2018-12-14T04:55:02.123Z,98139.14
2018-12-14T04:57:30.823Z,98137.67
2018-12-14T04:59:59.565Z,98135.78
2018-12-14T05:02:28.398Z,98132.50
2018-12-14T05:04:57.244Z,98139.25
2018-12-14T05:07:26.072Z,98136.72
2018-12-14T05:09:54.832Z,98142.28
2018-12-14T05:12:23.560Z,98141.20
2018-12-14T05:14:52.617Z,98140.22
2018-12-14T05:17:21.410Z,98139.75
2018-12-14T05:19:50.303Z,98144.27
2018-12-14T05:22:19.037Z,98142.20
2018-12-14T05:24:47.973Z,98138.67
2018-12-14T05:27:16.718Z,98143.02
2018-12-14T05:29:45.971Z,98148.00
2018-12-14T05:32:14.660Z,98143.30
2018-12-14T05:34:43.424Z,98151.70
2018-12-14T05:37:12.103Z,98159.20
2018-12-14T05:39:40.821Z,98159.28
2018-12-14T05:42:09.667Z,98161.46
2018-12-14T05:44:38.368Z,98165.72
2018-12-14T05:47:07.355Z,98166.00
2018-12-14T05:49:36.232Z,98163.51
2018-12-14T05:52:04.939Z,98168.59
2018-12-14T05:54:33.707Z,98169.23
2018-12-14T05:57:02.888Z,98160.05
2018-12-14T05:59:31.734Z,98163.23
2018-12-14T06:02:00.448Z,98163.75
2018-12-14T06:04:29.171Z,98159.28
2018-12-14T06:06:57.928Z,98163.70
2018-12-14T06:09:26.688Z,98160.66
2018-12-14T06:11:55.491Z,98163.91
2018-12-14T06:14:24.353Z,98162.38
2018-12-14T06:16:53.112Z,98168.77
2018-12-14T06:19:21.824Z,98165.20
2018-12-14T06:21:50.580Z,98173.30
2018-12-14T06:24:19.291Z,98167.98
2018-12-14T06:26:48.068Z,98173.91
2018-12-14T06:29:16.843Z,98176.06
2018-12-14T06:31:45.624Z,98178.73
2018-12-14T06:34:14.748Z,98172.73
2018-12-14T06:36:43.608Z,98180.91
2018-12-14T06:39:12.304Z,98192.50
2018-12-14T06:41:41.736Z,98192.03
2018-12-14T06:44:10.784Z,98188.29
2018-12-14T06:46:39.481Z,98191.41
2018-12-14T06:49:08.543Z,98195.53
2018-12-14T06:51:37.603Z,98200.66
2018-12-14T06:54:06.887Z,98199.71
2018-12-14T06:56:35.831Z,98201.66
2018-12-14T06:59:04.786Z,98210.84
2018-12-14T07:01:33.476Z,98211.50
2018-12-14T07:04:02.199Z,98213.48
2018-12-14T07:06:31.059Z,98211.87
2018-12-14T07:08:59.773Z,98212.25
2018-12-14T07:11:28.507Z,98216.47
2018-12-14T07:13:57.420Z,98216.29
2018-12-14T07:16:26.383Z,98219.09
2018-12-14T07:18:55.095Z,98216.67
2018-12-14T07:21:23.987Z,98215.83
2018-12-14T07:23:52.693Z,98216.23
2018-12-14T07:26:21.459Z,98219.70
2018-12-14T07:28:50.903Z,98218.34
2018-12-14T07:31:19.593Z,98225.77
2018-12-14T07:33:48.521Z,98231.50
2018-12-14T07:36:17.378Z,98226.91
2018-12-14T07:38:48.273Z,98235.48
2018-12-14T07:41:17.244Z,98239.64
2018-12-14T07:43:45.976Z,98237.11
2018-12-14T07:46:14.723Z,98248.00
2018-12-14T07:48:43.621Z,98247.86
2018-12-14T07:51:12.408Z,98253.51
2018-12-14T07:53:41.139Z,98256.14
2018-12-14T07:56:09.931Z,98260.42
2018-12-14T07:58:39.142Z,98260.24
2018-12-14T08:01:07.847Z,98257.81
2018-12-14T08:03:37.069Z,98266.92
2018-12-14T08:06:05.761Z,98260.11
2018-12-14T08:08:34.560Z,98265.55
2018-12-14T08:11:03.427Z,98265.11
2018-12-14T08:13:34.752Z,98273.52
2018-12-14T08:16:02.970Z,98270.16
2018-12-14T08:18:31.714Z,98270.84
2018-12-14T08:21:00.413Z,98261.89
2018-12-14T08:23:29.128Z,98274.93
2018-12-14T08:25:57.896Z,98278.52
2018-12-14T08:28:26.607Z,98279.33
2018-12-14T08:30:55.296Z,98274.88
2018-12-14T08:33:24.045Z,98274.93
2018-12-14T08:35:52.872Z,98283.69
2018-12-14T08:38:21.603Z,98285.03
2018-12-14T08:40:50.287Z,98288.16
2018-12-14T08:43:19.157Z,98283.15
2018-12-14T08:45:47.877Z,98283.56
2018-12-14T08:48:16.604Z,98291.41
2018-12-14T08:50:45.447Z,98290.05
2018-12-14T08:53:14.648Z,98288.40
2018-12-14T08:55:43.351Z,98293.61
2018-12-14T08:58:12.061Z,98297.03
2018-12-14T09:00:40.773Z,98301.42
2018-12-14T09:03:09.471Z,98296.56
2018-12-14T09:05:38.240Z,98298.18
2018-12-14T09:08:06.939Z,98297.42
2018-12-14T09:10:35.703Z,98305.58
2018-12-14T09:13:04.445Z,98310.08
2018-12-14T09:15:33.416Z,98307.77
2018-12-14T09:18:02.352Z,98314.68
2018-12-14T09:20:31.302Z,98310.77
2018-12-14T09:23:00.720Z,98313.09
2018-12-14T09:25:29.500Z,98318.04
2018-12-14T09:27:58.203Z,98315.38
2018-12-14T09:30:26.996Z,98312.84
2018-12-14T09:32:55.872Z,98304.57
2018-12-14T09:35:24.683Z,98313.66
2018-12-14T09:37:53.568Z,98309.28
2018-12-14T09:40:22.400Z,98307.75
2018-12-14T09:42:51.351Z,98305.33
2018-12-14T09:45:20.107Z,98302.92
2018-12-14T09:47:49.018Z,98308.81
2018-12-14T09:50:18.111Z,98303.70
2018-12-14T09:52:46.837Z,98308.50
2018-12-14T09:55:15.519Z,98305.67
2018-12-14T09:57:44.247Z,98306.93
2018-12-14T10:00:13.095Z,98307.00
2018-12-14T10:02:42.368Z,98310.47
2018-12-14T10:05:11.275Z,98318.63
2018-12-14T10:07:46.656Z,98313.25
2018-12-14T10:10:11.715Z,98316.08
2018-12-14T10:12:40.487Z,98317.45
2018-12-14T10:15:09.466Z,98317.40
2018-12-14T10:17:38.299Z,98319.82
2018-12-14T10:20:08.876Z,98324.13
2018-12-14T10:22:41.556Z,98331.22
2018-12-14T10:25:09.075Z,98325.82
2018-12-14T10:27:37.776Z,98329.53
2018-12-14T10:30:07.670Z,98320.41
2018-12-14T10:32:36.507Z,98322.77
2018-12-14T10:35:06.341Z,98327.79
2018-12-14T10:37:35.325Z,98324.75
2018-12-14T10:40:04.731Z,98311.73
2018-12-14T10:42:33.523Z,98320.95
2018-12-14T10:45:02.277Z,98321.34
2018-12-14T10:47:31.000Z,98321.79
2018-12-14T10:49:59.748Z,98319.90
2018-12-14T10:52:28.383Z,98323.98
2018-12-14T10:54:57.166Z,98312.27
2018-12-14T10:57:26.027Z,98315.23
2018-12-14T10:59:54.773Z,98310.95
2018-12-14T11:02:23.545Z,98305.91
2018-12-14T11:04:52.157Z,98308.53
2018-12-14T11:07:20.952Z,98305.72
2018-12-14T11:09:49.722Z,98308.57
2018-12-14T11:12:18.452Z,98304.55
2018-12-14T11:14:47.157Z,98305.46
2018-12-14T11:17:15.839Z,98306.96
2018-12-14T11:19:44.515Z,98308.92
2018-12-14T11:22:13.321Z,98304.58
2018-12-14T11:24:42.049Z,98305.11
2018-12-14T11:27:10.680Z,98305.62
2018-12-14T11:29:39.460Z,98305.70
2018-12-14T11:32:08.087Z,98302.27
2018-12-14T11:34:36.880Z,98307.13
2018-12-14T11:37:05.506Z,98299.47
2018-12-14T11:39:34.207Z,98305.67
2018-12-14T11:42:03.089Z,98305.18
2018-12-14T11:44:31.797Z,98309.02
2018-12-14T11:47:00.515Z,98312.25
2018-12-14T11:49:29.322Z,98310.30
2018-12-14T11:51:58.088Z,98306.83
2018-12-14T11:54:27.068Z,98310.56
2018-12-14T11:56:55.888Z,98310.84
2018-12-14T11:59:24.711Z,98312.99
2018-12-14T12:01:53.549Z,98307.34
2018-12-14T12:04:22.280Z,98310.97
2018-12-14T12:06:50.941Z,98307.34
2018-12-14T12:09:19.617Z,98310.83
2018-12-14T12:11:48.398Z,98315.34
2018-12-14T12:14:17.180Z,98313.73
2018-12-14T12:16:45.987Z,98315.85
2018-12-14T12:19:14.707Z,98313.71
2018-12-14T12:21:43.687Z,98316.03
2018-12-14T12:24:12.361Z,98314.85
2018-12-14T12:26:41.051Z,98314.86
2018-12-14T12:29:09.689Z,98313.10
2018-12-14T12:31:38.378Z,98312.40
2018-12-14T12:34:07.153Z,98311.41
2018-12-14T12:36:35.851Z,98311.20
2018-12-14T12:39:06.680Z,98310.02
2018-12-14T12:41:35.357Z,98310.50
2018-12-14T12:44:04.108Z,98309.34
2018-12-14T12:46:32.868Z,98306.97
2018-12-14T12:49:01.546Z,98310.47
2018-12-14T12:51:30.844Z,98307.21
2018-12-14T12:54:00.396Z,98307.00
2018-12-14T12:56:30.353Z,98307.45
2018-12-14T12:58:59.961Z,98302.19
2018-12-14T13:01:29.490Z,98306.95
2018-12-14T13:03:59.319Z,98310.31
2018-12-14T13:06:28.902Z,98306.58
2018-12-14T13:08:58.441Z,98297.92
2018-12-14T13:11:28.023Z,98302.55
2018-12-14T13:13:57.498Z,98300.06
2018-12-14T13:16:27.413Z,98302.03
2018-12-14T13:18:57.113Z,98298.52
2018-12-14T13:21:26.826Z,98299.75
2018-12-14T13:23:56.535Z,98302.66
2018-12-14T13:26:26.474Z,98302.48
2018-12-14T13:29:06.951Z,98307.14
2018-12-14T13:31:37.464Z,98307.53
2018-12-14T13:34:07.319Z,98311.38
2018-12-14T13:36:36.777Z,98313.66
2018-12-14T13:39:10.573Z,98315.73
2018-12-14T13:41:40.341Z,98316.03
2018-12-14T13:44:09.901Z,98307.58
2018-12-14T13:46:39.817Z,98312.64
2018-12-14T13:49:09.394Z,98311.97
2018-12-14T13:51:39.138Z,98314.15
2018-12-14T13:54:08.646Z,98314.58
2018-12-14T13:56:38.278Z,98315.52
2018-12-14T13:59:07.712Z,98319.66
2018-12-14T14:01:37.157Z,98329.99
2018-12-14T14:04:05.752Z,98329.81
2018-12-14T14:06:34.462Z,98337.28
2018-12-14T14:09:03.495Z,98338.09
2018-12-14T14:11:32.260Z,98344.73
2018-12-14T14:14:00.973Z,98340.75
2018-12-14T14:16:29.634Z,98350.73
2018-12-14T14:18:58.351Z,98336.27
2018-12-14T14:21:27.185Z,98343.80
2018-12-14T14:23:55.927Z,98342.92
2018-12-14T14:26:24.832Z,98346.45
2018-12-14T14:28:53.764Z,98348.64
2018-12-14T14:31:22.697Z,98345.30
2018-12-14T14:33:51.424Z,98347.72
2018-12-14T14:36:20.137Z,98354.89
2018-12-14T14:38:48.856Z,98351.67
2018-12-14T14:41:17.600Z,98350.30
2018-12-14T14:43:46.491Z,98356.73
2018-12-14T14:46:15.442Z,98354.91
2018-12-14T14:48:44.272Z,98358.59
2018-12-14T14:51:13.351Z,98357.58
2018-12-14T14:53:42.221Z,98364.52
2018-12-14T14:56:11.187Z,98368.05
2018-12-14T14:58:39.861Z,98375.01
2018-12-14T15:01:08.630Z,98369.70
2018-12-14T15:03:37.483Z,98376.77
2018-12-14T15:06:06.214Z,98383.39
2018-12-14T15:08:34.962Z,98385.20
2018-12-14T15:11:03.675Z,98385.48
2018-12-14T15:13:32.480Z,98386.92
2018-12-14T15:16:01.105Z,98397.56
2018-12-14T15:18:30.224Z,98391.59
2018-12-14T15:20:58.970Z,98395.63
2018-12-14T15:23:27.716Z,98393.34
2018-12-14T15:25:56.379Z,98403.17
2018-12-14T15:28:25.079Z,98404.83
2018-12-14T15:30:53.944Z,98402.80
2018-12-14T15:33:22.764Z,98410.08
2018-12-14T15:35:51.622Z,98408.26
2018-12-14T15:38:20.323Z,98411.20
2018-12-14T15:40:49.180Z,98417.58
2018-12-14T15:43:17.875Z,98414.91
2018-12-14T15:45:46.639Z,98421.53
2018-12-14T15:48:15.535Z,98418.27
2018-12-14T15:50:44.351Z,98423.45
2018-12-14T15:53:13.060Z,98424.59
2018-12-14T15:55:41.769Z,98423.95
2018-12-14T15:58:10.480Z,98426.12
2018-12-14T16:00:39.267Z,98431.85
2018-12-14T16:03:08.009Z,98440.30
2018-12-14T16:05:36.863Z,98438.91
2018-12-14T16:08:05.650Z,98443.31
2018-12-14T16:10:34.409Z,98448.63
2018-12-14T16:13:03.228Z,98442.38
2018-12-14T16:15:32.090Z,98447.05
2018-12-14T16:18:00.872Z,98449.31
2018-12-14T16:20:29.629Z,98448.52
2018-12-14T16:22:58.411Z,98452.50
2018-12-14T16:25:27.353Z,98452.28
2018-12-14T16:27:56.286Z,98460.44
2018-12-14T16:30:25.031Z,98463.38
2018-12-14T16:32:53.984Z,98460.20
2018-12-14T16:35:22.962Z,98464.41
2018-12-14T16:37:52.264Z,98464.25
2018-12-14T16:40:21.021Z,98473.63
2018-12-14T16:42:49.911Z,98468.64
2018-12-14T16:45:18.748Z,98470.45
2018-12-14T16:47:47.596Z,98473.95
2018-12-14T16:50:16.311Z,98475.59
2018-12-14T16:52:45.196Z,98481.66
2018-12-14T16:55:13.888Z,98475.86
2018-12-14T16:57:42.595Z,98482.12
2018-12-14T17:00:11.663Z,98480.67
2018-12-14T17:02:40.313Z,98480.56
2018-12-14T17:05:09.097Z,98491.57
2018-12-14T17:07:37.868Z,98499.92
2018-12-14T17:10:07.197Z,98498.14
2018-12-14T17:12:35.836Z,98501.86
2018-12-14T17:15:05.320Z,98499.02
2018-12-14T17:17:34.366Z,98502.64
2018-12-14T17:20:03.022Z,98503.30
2018-12-14T17:22:31.656Z,98496.03
2018-12-14T17:25:00.643Z,98500.27
2018-12-14T17:27:29.595Z,98501.59
2018-12-14T17:29:58.201Z,98505.58
2018-12-14T17:32:26.951Z,98502.91
2018-12-14T17:34:55.655Z,98509.89
2018-12-14T17:37:24.359Z,98513.08
2018-12-14T17:39:53.172Z,98504.07
2018-12-14T17:42:21.986Z,98513.18
2018-12-14T17:44:50.717Z,98504.41
2018-12-14T17:47:19.455Z,98514.06
2018-12-14T17:49:48.171Z,98518.31
2018-12-14T17:52:16.879Z,98517.12
2018-12-14T17:54:45.632Z,98519.98
2018-12-14T17:57:14.417Z,98531.52
2018-12-14T17:59:43.122Z,98523.48
2018-12-14T18:02:11.931Z,98522.39
2018-12-14T18:04:40.785Z,98526.72
2018-12-14T18:07:09.889Z,98529.52
2018-12-14T18:09:38.638Z,98528.62
2018-12-14T18:12:07.480Z,98529.05
2018-12-14T18:14:36.228Z,98530.62
2018-12-14T18:17:05.038Z,98529.52
2018-12-14T18:19:33.753Z,98530.13
2018-12-14T18:22:02.565Z,98532.89
2018-12-14T18:24:31.381Z,98535.27
2018-12-14T18:27:00.193Z,98534.76
2018-12-14T18:29:28.943Z,98531.09
2018-12-14T18:31:57.819Z,98530.62
2018-12-14T18:34:26.765Z,98528.76
2018-12-14T18:36:55.581Z,98537.16
2018-12-14T18:39:24.383Z,98535.13
2018-12-14T18:41:53.193Z,98540.01
2018-12-14T18:44:21.985Z,98543.78
2018-12-14T18:46:50.753Z,98542.73
2018-12-14T18:49:19.536Z,98544.27
2018-12-14T18:51:48.316Z,98546.58
2018-12-14T18:54:17.676Z,98548.95
2018-12-14T18:56:46.413Z,98541.62
2018-12-14T18:59:15.326Z,98548.77
2018-12-14T19:01:44.052Z,98557.27
2018-12-14T19:04:12.961Z,98555.66
2018-12-14T19:06:41.733Z,98555.97
2018-12-14T19:09:10.629Z,98559.31
2018-12-14T19:11:39.343Z,98557.78
2018-12-14T19:14:08.094Z,98563.12
2018-12-14T19:16:36.929Z,98567.66
2018-12-14T19:19:05.667Z,98566.96
2018-12-14T19:21:34.449Z,98581.59
2018-12-14T19:24:03.144Z,98586.46
2018-12-14T19:26:31.943Z,98576.83
2018-12-14T19:29:02.062Z,98585.91
2018-12-14T19:31:31.104Z,98582.74
2018-12-14T19:33:59.815Z,98588.96
2018-12-14T19:36:28.661Z,98584.35
2018-12-14T19:38:57.508Z,98594.28
2018-12-14T19:41:26.330Z,98592.06
2018-12-14T19:43:55.245Z,98598.20
2018-12-14T19:46:24.171Z,98602.50
2018-12-14T19:48:55.819Z,98609.56
2018-12-14T19:51:24.667Z,98612.05
2018-12-14T19:53:53.362Z,98613.73
2018-12-14T19:56:22.216Z,98616.52
2018-12-14T19:58:50.985Z,98619.33
2018-12-14T20:01:19.827Z,98620.11
2018-12-14T20:03:48.508Z,98619.70
2018-12-14T20:06:17.243Z,98622.51
2018-12-14T20:08:45.958Z,98628.59
2018-12-14T20:11:14.755Z,98626.12
2018-12-14T20:13:43.535Z,98629.08
2018-12-14T20:16:12.944Z,98626.27
2018-12-14T20:18:41.814Z,98626.21
2018-12-14T20:21:10.519Z,98627.51
2018-12-14T20:23:40.064Z,98623.77
2018-12-14T20:26:08.935Z,98617.73
2018-12-14T20:28:37.881Z,98623.47
2018-12-14T20:31:06.948Z,98624.84
2018-12-14T20:33:35.643Z,98620.39
2018-12-14T20:36:04.717Z,98621.33
2018-12-14T20:38:33.616Z,98622.95
2018-12-14T20:41:02.514Z,98622.34
2018-12-14T20:43:31.225Z,98618.66
2018-12-14T20:46:00.067Z,98623.47
2018-12-14T20:48:28.762Z,98628.22
2018-12-14T20:50:57.499Z,98629.09
2018-12-14T20:53:26.735Z,98628.33
2018-12-14T20:55:55.561Z,98632.02
2018-12-14T20:58:24.312Z,98628.52
2018-12-14T21:00:53.059Z,98636.84
2018-12-14T21:03:23.939Z,98641.16
2018-12-14T21:05:52.753Z,98649.41
2018-12-14T21:08:21.494Z,98650.94
2018-12-14T21:10:50.295Z,98645.72
2018-12-14T21:13:19.145Z,98653.19
2018-12-14T21:15:47.931Z,98656.08
2018-12-14T21:18:16.734Z,98654.27
2018-12-14T21:20:45.715Z,98653.50
2018-12-14T21:23:14.768Z,98655.70
2018-12-14T21:25:43.633Z,98657.83
2018-12-14T21:28:12.535Z,98658.73
2018-12-14T21:30:41.223Z,98659.84
2018-12-14T21:33:09.948Z,98657.36
2018-12-14T21:35:38.752Z,98655.41
2018-12-14T21:38:07.511Z,98658.98
2018-12-14T21:40:36.347Z,98653.19
2018-12-14T21:43:05.068Z,98657.47
2018-12-14T21:45:33.889Z,98646.53
2018-12-14T21:48:02.638Z,98650.48
2018-12-14T21:50:31.500Z,98647.34
2018-12-14T21:53:00.335Z,98651.42
2018-12-14T21:55:29.275Z,98653.80
2018-12-14T21:57:58.039Z,98652.61
2018-12-14T22:00:26.827Z,98654.35
2018-12-14T22:02:55.884Z,98655.99
2018-12-14T22:05:24.711Z,98657.19
2018-12-14T22:07:53.497Z,98656.75
2018-12-14T22:10:22.264Z,98648.62
2018-12-14T22:12:50.973Z,98655.70
2018-12-14T22:15:19.730Z,98652.75
2018-12-14T22:17:48.457Z,98647.62
2018-12-14T22:20:17.225Z,98650.66
2018-12-14T22:22:45.990Z,98647.48
2018-12-14T22:25:14.720Z,98645.09
2018-12-14T22:27:43.452Z,98649.02
2018-12-14T22:30:12.383Z,98643.22
2018-12-14T22:32:41.496Z,98647.61
2018-12-14T22:35:10.271Z,98639.00
2018-12-14T22:37:39.099Z,98635.26
2018-12-14T22:40:08.655Z,98640.02
2018-12-14T22:42:37.404Z,98640.52
2018-12-14T22:45:07.035Z,98641.96
2018-12-14T22:47:35.740Z,98641.96
2018-12-14T22:50:05.196Z,98637.34
2018-12-14T22:52:34.024Z,98635.50
2018-12-14T22:55:02.880Z,98634.73
2018-12-14T22:57:31.607Z,98631.32
2018-12-14T23:00:00.361Z,98633.41
2018-12-14T23:02:29.176Z,98642.11
2018-12-14T23:04:57.931Z,98635.16
2018-12-14T23:07:26.755Z,98639.53
2018-12-14T23:09:55.527Z,98635.88
2018-12-14T23:12:24.163Z,98641.19
2018-12-14T23:14:53.115Z,98637.44
2018-12-14T23:17:21.899Z,98635.84
2018-12-14T23:19:50.710Z,98633.62
2018-12-14T23:22:19.548Z,98635.92
2018-12-14T23:24:48.287Z,98641.59
2018-12-14T23:27:17.003Z,98645.23
2018-12-14T23:29:45.736Z,98644.67
2018-12-14T23:32:14.471Z,98648.30
2018-12-14T23:34:43.112Z,98647.29
2018-12-14T23:37:14.047Z,98648.09
2018-12-14T23:39:42.675Z,98649.81
2018-12-14T23:42:11.395Z,98659.38
2018-12-14T23:44:40.264Z,98654.12
2018-12-14T23:47:09.063Z,98653.59
2018-12-14T23:49:38.016Z,98657.79
2018-12-14T23:52:06.829Z,98655.41
2018-12-14T23:54:35.592Z,98659.41
2018-12-14T23:57:04.392Z,98655.45
2018-12-14T23:59:33.083Z,98654.06
